Time;durP1;ratioP1;P1;durP2;ratioP2;P2;SDS_P1;SDS_P2;PMS_P1;PMS_P2;Temp;Humidity;BMP_temperature;BMP_pressure;BME280_temperature;BME280_humidity;BME280_pressure;Samples;Min_cycle;Max_cycle;Signal;HPM_P1;HPM_P2
2023/08/05 00:01:04;;;;;;;1.13;0.50;;;15.20;99.90;;;;;;4994946;28;20036;-88
2023/08/05 00:03:30;;;;;;;1.30;0.60;;;15.10;99.90;;;;;;5006772;28;20041;-86
2023/08/05 00:05:55;;;;;;;2.13;0.60;;;15.20;99.90;;;;;;5023350;28;20026;-86
2023/08/05 00:08:21;;;;;;;2.08;0.60;;;15.20;99.90;;;;;;5009372;28;20537;-87
2023/08/05 00:10:47;;;;;;;0.95;0.50;;;15.20;99.90;;;;;;5025019;28;20036;-84
2023/08/05 00:13:13;;;;;;;1.85;0.57;;;15.20;99.90;;;;;;5024834;28;20025;-88
2023/08/05 00:15:41;;;;;;;1.10;0.50;;;15.20;99.90;;;;;;4993905;28;20037;-82
2023/08/05 00:18:07;;;;;;;1.60;0.50;;;15.20;99.90;;;;;;5011054;28;20481;-88
2023/08/05 00:20:33;;;;;;;1.20;0.60;;;15.20;99.90;;;;;;5025668;28;20087;-88
2023/08/05 00:22:58;;;;;;;1.10;0.50;;;15.20;99.90;;;;;;4994253;28;20026;-87
2023/08/05 00:25:24;;;;;;;1.25;0.50;;;15.10;99.90;;;;;;5006833;28;20065;-88
2023/08/05 00:27:50;;;;;;;1.20;0.60;;;15.10;99.90;;;;;;5008830;28;20059;-87
2023/08/05 00:30:15;;;;;;;2.38;0.60;;;15.20;99.90;;;;;;5008632;28;20056;-88
2023/08/05 00:32:41;;;;;;;1.05;0.50;;;15.20;99.90;;;;;;5018857;28;20059;-84
2023/08/05 00:35:07;;;;;;;1.40;0.50;;;15.20;99.90;;;;;;5013890;28;20029;-89
2023/08/05 00:37:34;;;;;;;1.60;0.60;;;15.20;99.90;;;;;;5024489;28;20037;-85
2023/08/05 00:40:01;;;;;;;2.47;0.60;;;15.20;99.90;;;;;;5026844;28;20022;-83
2023/08/05 00:42:28;;;;;;;1.90;0.50;;;15.20;99.90;;;;;;5007940;28;20112;-82
2023/08/05 00:44:54;;;;;;;1.80;0.68;;;15.20;99.90;;;;;;4995489;28;20025;-86
2023/08/05 00:47:20;;;;;;;1.40;0.60;;;15.20;99.90;;;;;;5027108;28;20611;-84
2023/08/05 00:49:47;;;;;;;1.23;0.50;;;15.20;99.90;;;;;;5022420;28;20026;-89
2023/08/05 00:52:15;;;;;;;1.35;0.60;;;15.20;99.90;;;;;;5010771;28;20045;-88
2023/08/05 00:54:41;;;;;;;1.50;0.60;;;15.20;99.90;;;;;;5022140;28;20087;-87
2023/08/05 00:57:12;;;;;;;2.28;0.60;;;15.20;99.90;;;;;;5021773;28;20128;-82
2023/08/05 00:59:38;;;;;;;1.42;0.70;;;15.20;99.90;;;;;;4989343;28;20200;-86
2023/08/05 01:02:05;;;;;;;3.17;1.00;;;15.10;99.90;;;;;;5000726;28;20080;-85
2023/08/05 01:04:32;;;;;;;2.00;0.60;;;15.20;99.90;;;;;;5021636;28;20037;-86
2023/08/05 01:06:59;;;;;;;1.27;0.60;;;15.10;99.90;;;;;;5026406;28;20509;-85
2023/08/05 01:09:25;;;;;;;1.90;0.85;;;15.20;99.90;;;;;;5049597;28;20075;-88
2023/08/05 01:11:51;;;;;;;2.10;0.70;;;15.10;99.90;;;;;;5042032;28;20045;-87
2023/08/05 01:14:17;;;;;;;1.33;0.68;;;15.10;99.90;;;;;;5034447;28;20039;-87
2023/08/05 01:16:44;;;;;;;5.68;0.70;;;15.10;99.90;;;;;;5026158;28;20029;-87
2023/08/05 01:19:25;;;;;;;1.88;0.70;;;15.10;99.90;;;;;;5042497;28;20028;-82
2023/08/05 01:22:14;;;;;;;2.28;0.68;;;15.10;99.90;;;;;;5058173;28;20039;-83
2023/08/05 01:24:59;;;;;;;2.77;0.70;;;15.10;99.90;;;;;;5048530;28;20091;-89
2023/08/05 01:27:27;;;;;;;1.98;0.52;;;15.20;99.90;;;;;;5058839;28;20065;-86
2023/08/05 01:29:53;;;;;;;1.23;0.60;;;15.10;99.90;;;;;;5051790;28;20029;-88
2023/08/05 01:32:19;;;;;;;1.65;0.60;;;15.10;99.90;;;;;;5059611;28;20041;-85
2023/08/05 01:34:47;;;;;;;2.17;0.70;;;15.10;99.90;;;;;;5044180;28;20075;-83
2023/08/05 01:37:13;;;;;;;1.30;0.50;;;15.10;99.90;;;;;;5040282;28;20026;-86
2023/08/05 01:39:39;;;;;;;1.52;0.68;;;15.20;99.90;;;;;;5045159;28;20380;-85
2023/08/05 01:42:05;;;;;;;2.47;0.75;;;15.20;99.90;;;;;;5046530;28;20025;-87
2023/08/05 01:44:31;;;;;;;1.30;0.60;;;15.10;99.90;;;;;;5059108;28;20082;-86
2023/08/05 01:46:57;;;;;;;2.22;0.75;;;15.10;99.90;;;;;;5059931;28;20495;-86
2023/08/05 01:49:23;;;;;;;1.65;0.60;;;15.10;99.90;;;;;;5050416;28;20451;-85
2023/08/05 01:51:49;;;;;;;2.03;0.50;;;15.10;99.90;;;;;;5029241;28;20358;-89
2023/08/05 01:54:16;;;;;;;1.40;0.60;;;15.10;99.90;;;;;;5039653;28;20074;-84
2023/08/05 01:56:42;;;;;;;1.27;0.60;;;15.10;99.90;;;;;;5059419;28;20451;-89
2023/08/05 01:59:07;;;;;;;1.20;0.60;;;15.10;99.90;;;;;;5048071;28;20104;-86
2023/08/05 02:01:41;;;;;;;1.20;0.60;;;15.10;99.90;;;;;;5056621;28;20028;-89
2023/08/05 02:04:06;;;;;;;1.17;0.60;;;15.10;99.90;;;;;;5030080;28;20378;-88
2023/08/05 02:06:32;;;;;;;1.30;0.50;;;15.10;99.90;;;;;;5055641;28;20032;-87
2023/08/05 02:08:58;;;;;;;1.45;0.70;;;15.00;99.90;;;;;;5044305;28;20164;-85
2023/08/05 02:11:24;;;;;;;1.02;0.52;;;15.10;99.90;;;;;;5054225;28;20040;-82
2023/08/05 02:13:49;;;;;;;1.95;0.60;;;15.10;99.90;;;;;;5064527;28;20554;-87
2023/08/05 02:16:15;;;;;;;2.95;0.70;;;15.10;99.90;;;;;;5048261;28;20405;-87
2023/08/05 02:18:41;;;;;;;2.22;0.65;;;15.10;99.90;;;;;;5048272;28;20060;-89
2023/08/05 02:21:06;;;;;;;1.70;0.60;;;15.10;99.90;;;;;;5059956;28;20025;-88
2023/08/05 02:23:32;;;;;;;1.38;0.60;;;15.10;99.90;;;;;;5045528;28;20025;-88
2023/08/05 02:25:58;;;;;;;1.60;0.70;;;15.10;99.90;;;;;;5047156;28;20047;-85
2023/08/05 02:28:23;;;;;;;2.08;0.80;;;15.10;99.90;;;;;;5046994;28;20025;-88
2023/08/05 02:30:49;;;;;;;1.45;0.70;;;15.10;99.90;;;;;;5041020;28;20033;-88
2023/08/05 02:33:15;;;;;;;1.55;0.60;;;15.10;99.90;;;;;;5046900;28;20033;-86
2023/08/05 02:35:40;;;;;;;1.60;0.60;;;15.10;99.90;;;;;;5046960;28;20095;-89
2023/08/05 02:38:06;;;;;;;1.30;0.70;;;15.10;99.90;;;;;;5045654;28;20021;-85
2023/08/05 02:40:33;;;;;;;1.75;0.70;;;15.10;99.90;;;;;;5062565;28;20029;-84
2023/08/05 02:42:59;;;;;;;2.70;0.88;;;15.10;99.90;;;;;;5060720;28;20052;-86
2023/08/05 02:45:25;;;;;;;1.95;0.70;;;15.10;99.90;;;;;;5050002;28;20607;-89
2023/08/05 02:47:51;;;;;;;2.03;0.73;;;15.20;99.90;;;;;;5031644;28;20094;-86
2023/08/05 02:50:16;;;;;;;2.08;1.00;;;15.10;99.90;;;;;;5049425;28;20048;-88
2023/08/05 02:52:42;;;;;;;3.22;0.85;;;15.10;99.90;;;;;;5053288;28;20033;-88
2023/08/05 02:55:08;;;;;;;2.35;0.73;;;15.10;99.90;;;;;;5040717;28;20033;-86
2023/08/05 02:57:33;;;;;;;1.17;0.63;;;15.10;99.90;;;;;;5042766;28;20052;-89
2023/08/05 02:59:59;;;;;;;2.05;0.60;;;15.10;99.90;;;;;;5045727;28;20087;-88
2023/08/05 03:02:25;;;;;;;1.83;0.77;;;15.10;99.90;;;;;;5059867;28;20485;-87
2023/08/05 03:04:51;;;;;;;2.95;0.80;;;15.10;99.90;;;;;;5061739;28;20029;-88
2023/08/05 03:07:17;;;;;;;1.33;0.60;;;15.10;99.90;;;;;;5045099;28;20029;-85
2023/08/05 03:09:43;;;;;;;3.00;0.70;;;15.00;99.90;;;;;;5049317;28;20124;-85
2023/08/05 03:12:09;;;;;;;2.55;1.02;;;15.00;99.90;;;;;;5061555;28;20041;-84
2023/08/05 03:14:35;;;;;;;1.70;0.90;;;14.90;99.90;;;;;;5061683;28;20435;-88
2023/08/05 03:17:03;;;;;;;1.52;0.80;;;15.00;99.90;;;;;;5046975;28;20120;-82
2023/08/05 03:19:29;;;;;;;2.15;0.70;;;14.90;99.90;;;;;;5063064;28;20119;-87
2023/08/05 03:21:56;;;;;;;1.80;0.75;;;14.90;99.90;;;;;;5063293;28;20055;-88
2023/08/05 03:24:21;;;;;;;2.75;0.88;;;14.90;99.90;;;;;;5061750;28;20469;-82
2023/08/05 03:26:51;;;;;;;1.83;0.80;;;14.80;99.90;;;;;;5061677;28;20029;-84
2023/08/05 03:29:16;;;;;;;1.55;0.70;;;14.80;99.90;;;;;;5047055;28;20028;-89
2023/08/05 03:31:43;;;;;;;1.70;0.70;;;14.80;99.90;;;;;;5029953;28;20037;-85
2023/08/05 03:34:09;;;;;;;1.67;0.80;;;14.90;99.90;;;;;;5045095;28;20406;-84
2023/08/05 03:36:36;;;;;;;1.67;0.90;;;14.90;99.90;;;;;;5061620;28;20594;-84
2023/08/05 03:39:03;;;;;;;2.53;0.95;;;14.80;99.90;;;;;;5045715;28;20021;-88
2023/08/05 03:41:29;;;;;;;1.50;0.80;;;14.80;99.90;;;;;;5044674;28;20033;-84
2023/08/05 03:43:55;;;;;;;2.28;0.80;;;14.80;99.90;;;;;;5063626;28;20037;-88
2023/08/05 03:46:20;;;;;;;2.03;0.90;;;14.70;99.90;;;;;;5043534;28;20108;-88
2023/08/05 03:48:48;;;;;;;2.92;0.95;;;14.80;99.90;;;;;;5055711;28;20103;-86
2023/08/05 03:51:15;;;;;;;2.38;1.02;;;14.80;99.90;;;;;;5060762;28;20511;-88
2023/08/05 03:53:41;;;;;;;1.33;0.70;;;14.80;99.90;;;;;;5050079;28;20079;-87
2023/08/05 03:56:07;;;;;;;1.70;0.85;;;14.70;99.90;;;;;;5045684;28;20032;-87
2023/08/05 03:58:34;;;;;;;2.30;0.70;;;14.70;99.90;;;;;;5043359;28;20033;-88
2023/08/05 04:01:01;;;;;;;1.52;0.70;;;14.70;99.90;;;;;;5038051;28;20025;-88
2023/08/05 04:03:28;;;;;;;1.63;0.70;;;14.60;99.90;;;;;;5027894;28;20059;-84
2023/08/05 04:05:55;;;;;;;2.90;0.95;;;14.60;99.90;;;;;;5029401;28;20025;-85
2023/08/05 04:08:21;;;;;;;1.55;0.63;;;14.60;99.90;;;;;;5045900;28;20039;-88
2023/08/05 04:10:48;;;;;;;3.00;0.85;;;14.60;99.90;;;;;;5044408;28;20095;-83
2023/08/05 04:13:16;;;;;;;1.88;0.80;;;14.60;99.90;;;;;;5045541;28;20454;-84
2023/08/05 04:15:42;;;;;;;2.72;1.38;;;14.60;99.90;;;;;;5060101;28;20025;-87
2023/08/05 04:18:08;;;;;;;3.33;1.10;;;14.60;99.90;;;;;;5044104;28;20027;-88
2023/08/05 04:20:36;;;;;;;2.22;1.20;;;14.60;99.90;;;;;;5044444;28;20017;-88
2023/08/05 04:23:04;;;;;;;2.17;0.77;;;14.60;99.90;;;;;;5036903;28;20029;-82
2023/08/05 04:25:31;;;;;;;2.55;0.77;;;14.60;99.90;;;;;;5044995;28;20032;-87
2023/08/05 04:27:57;;;;;;;2.45;1.33;;;14.60;99.90;;;;;;5046037;28;20024;-86
2023/08/05 04:30:23;;;;;;;2.08;1.00;;;14.60;99.90;;;;;;5043266;28;20024;-85
2023/08/05 04:32:49;;;;;;;2.65;0.88;;;14.60;99.90;;;;;;5055970;28;20548;-88
2023/08/05 04:35:14;;;;;;;1.65;0.80;;;14.70;99.90;;;;;;5051502;28;20527;-85
2023/08/05 04:37:40;;;;;;;2.47;0.90;;;14.70;99.90;;;;;;5054471;28;20029;-86
2023/08/05 04:40:06;;;;;;;4.13;0.93;;;14.70;99.90;;;;;;5059333;28;20542;-84
2023/08/05 04:42:32;;;;;;;3.03;0.95;;;14.80;99.90;;;;;;5045088;28;20035;-87
2023/08/05 04:44:57;;;;;;;2.47;0.93;;;14.80;99.90;;;;;;5047407;28;20029;-81
2023/08/05 04:47:23;;;;;;;1.98;0.70;;;14.90;99.90;;;;;;5042145;28;20029;-86
2023/08/05 04:49:49;;;;;;;2.92;1.05;;;14.90;99.90;;;;;;5043094;28;20067;-83
2023/08/05 04:52:15;;;;;;;1.73;0.80;;;15.00;99.90;;;;;;5058808;28;20729;-86
2023/08/05 04:54:44;;;;;;;2.72;0.95;;;15.10;99.90;;;;;;5055667;28;20502;-85
2023/08/05 04:57:11;;;;;;;2.05;0.82;;;15.10;99.90;;;;;;5057866;28;20029;-86
2023/08/05 04:59:37;;;;;;;1.75;0.73;;;15.10;99.90;;;;;;5051828;28;20605;-87
2023/08/05 05:02:04;;;;;;;1.85;0.90;;;15.10;99.90;;;;;;5042372;28;20119;-87
2023/08/05 05:04:29;;;;;;;2.67;1.00;;;15.10;99.90;;;;;;5041805;28;20057;-84
2023/08/05 05:06:55;;;;;;;3.05;0.88;;;15.10;99.90;;;;;;5060016;28;20480;-86
2023/08/05 05:09:21;;;;;;;3.25;1.10;;;15.10;99.90;;;;;;5041264;28;20082;-87
2023/08/05 05:11:47;;;;;;;2.08;1.00;;;15.10;99.90;;;;;;5054227;28;20090;-86
2023/08/05 05:14:13;;;;;;;1.63;0.90;;;15.10;99.90;;;;;;5060714;28;20028;-87
2023/08/05 05:16:38;;;;;;;2.47;0.80;;;15.10;99.90;;;;;;5044782;28;20055;-83
2023/08/05 05:19:04;;;;;;;1.63;0.70;;;15.10;99.90;;;;;;5038660;28;20057;-87
2023/08/05 05:21:30;;;;;;;1.73;1.00;;;15.10;99.90;;;;;;5040921;28;20134;-88
2023/08/05 05:23:56;;;;;;;1.45;0.85;;;15.10;99.90;;;;;;5060138;28;20029;-81
2023/08/05 05:26:22;;;;;;;2.45;0.70;;;15.20;99.90;;;;;;5050626;28;20112;-81
2023/08/05 05:28:47;;;;;;;3.03;1.10;;;15.20;99.90;;;;;;5045424;28;20376;-86
2023/08/05 05:31:13;;;;;;;1.63;0.70;;;15.30;99.90;;;;;;5060163;28;20029;-81
2023/08/05 05:33:39;;;;;;;4.60;1.20;;;15.30;99.90;;;;;;5060220;28;20025;-87
2023/08/05 05:36:05;;;;;;;3.15;0.90;;;15.40;99.90;;;;;;5052262;28;20485;-88
2023/08/05 05:38:30;;;;;;;2.88;1.15;;;15.40;99.90;;;;;;5052779;28;20461;-87
2023/08/05 05:40:57;;;;;;;4.35;0.80;;;15.50;99.90;;;;;;5046076;28;20021;-88
2023/08/05 05:43:23;;;;;;;1.85;1.02;;;15.60;99.90;;;;;;5058838;28;20485;-88
2023/08/05 05:45:52;;;;;;;2.30;1.00;;;15.60;99.90;;;;;;5053037;28;20075;-89
2023/08/05 05:48:18;;;;;;;2.33;1.05;;;15.60;99.90;;;;;;5044289;28;20103;-87
2023/08/05 05:50:44;;;;;;;2.88;0.90;;;15.70;99.90;;;;;;5057391;28;20116;-82
2023/08/05 05:53:13;;;;;;;1.70;0.90;;;15.80;99.90;;;;;;5051489;28;20079;-88
2023/08/05 05:55:42;;;;;;;2.00;0.90;;;15.90;99.90;;;;;;5042839;28;20032;-86
2023/08/05 05:58:08;;;;;;;1.67;1.02;;;16.10;99.90;;;;;;5053824;28;20071;-86
2023/08/05 06:00:39;;;;;;;2.08;1.17;;;16.20;99.90;;;;;;5041460;28;20027;-88
2023/08/05 06:03:08;;;;;;;4.30;1.17;;;16.10;99.90;;;;;;5056399;28;20045;-88
2023/08/05 06:05:33;;;;;;;3.20;1.50;;;16.10;99.90;;;;;;5044374;28;20047;-87
2023/08/05 06:07:59;;;;;;;3.47;1.30;;;16.10;99.90;;;;;;5054022;28;20108;-88
2023/08/05 06:10:25;;;;;;;3.00;1.45;;;16.10;99.90;;;;;;5052039;28;20110;-89
2023/08/05 06:12:51;;;;;;;3.47;1.52;;;16.10;99.90;;;;;;5035223;28;20040;-86
2023/08/05 06:15:16;;;;;;;3.53;1.00;;;16.10;99.90;;;;;;5041176;28;20058;-89
2023/08/05 06:17:42;;;;;;;2.53;1.15;;;16.10;99.90;;;;;;5046641;28;20035;-84
2023/08/05 06:20:08;;;;;;;2.22;1.10;;;16.10;99.90;;;;;;5045703;28;20137;-88
2023/08/05 06:22:34;;;;;;;2.78;1.15;;;16.20;99.90;;;;;;5037159;28;20336;-86
2023/08/05 06:25:00;;;;;;;2.05;1.40;;;16.20;99.90;;;;;;5037733;28;20602;-87
2023/08/05 06:27:26;;;;;;;2.22;1.25;;;16.20;99.90;;;;;;5037022;28;20032;-84
2023/08/05 06:29:51;;;;;;;2.90;1.08;;;16.30;99.90;;;;;;5052809;28;20049;-86
2023/08/05 06:32:17;;;;;;;2.10;0.95;;;16.30;99.90;;;;;;5042055;28;20045;-83
2023/08/05 06:34:43;;;;;;;2.22;1.25;;;16.40;99.90;;;;;;5053395;28;20021;-88
2023/08/05 06:37:08;;;;;;;1.85;1.13;;;16.50;99.90;;;;;;5042187;28;20366;-81
2023/08/05 06:39:34;;;;;;;2.65;1.25;;;16.50;99.90;;;;;;5041232;28;20037;-87
2023/08/05 06:42:00;;;;;;;4.60;1.10;;;16.60;99.90;;;;;;5056608;28;20085;-89
2023/08/05 06:44:29;;;;;;;2.10;1.40;;;16.70;99.90;;;;;;5057208;28;20029;-87
2023/08/05 06:46:55;;;;;;;2.92;1.50;;;16.80;99.90;;;;;;5038157;28;20287;-89
2023/08/05 06:49:21;;;;;;;3.63;1.58;;;16.90;99.90;;;;;;5039891;28;20029;-88
2023/08/05 06:51:47;;;;;;;2.58;1.15;;;17.20;99.90;;;;;;5046808;28;20109;-87
2023/08/05 06:54:13;;;;;;;2.42;1.45;;;17.20;99.90;;;;;;5056871;28;20433;-89
2023/08/05 06:56:38;;;;;;;3.22;1.52;;;17.20;99.90;;;;;;5038981;28;20026;-89
2023/08/05 06:59:04;;;;;;;2.85;1.58;;;17.20;99.90;;;;;;5043152;28;20029;-88
2023/08/05 07:01:30;;;;;;;4.95;1.63;;;17.40;99.90;;;;;;5043149;28;20033;-89
2023/08/05 07:03:56;;;;;;;4.63;2.10;;;17.90;99.90;;;;;;5054074;28;20067;-88
2023/08/05 07:06:22;;;;;;;3.30;1.77;;;18.20;99.90;;;;;;5058671;28;20059;-89
2023/08/05 07:08:47;;;;;;;4.70;2.22;;;18.40;99.90;;;;;;5054644;28;20098;-85
2023/08/05 07:11:13;;;;;;;4.03;2.13;;;18.30;99.90;;;;;;5042090;28;20096;-86
2023/08/05 07:13:39;;;;;;;2.90;1.55;;;18.30;99.90;;;;;;5040664;28;20028;-82
2023/08/05 07:16:04;;;;;;;2.63;1.73;;;18.60;99.90;;;;;;5023893;28;20037;-85
2023/08/05 07:18:30;;;;;;;3.42;2.05;;;18.50;99.90;;;;;;5040540;28;20032;-87
2023/08/05 07:20:56;;;;;;;2.33;1.90;;;18.30;99.90;;;;;;5038304;28;20053;-87
2023/08/05 07:23:22;;;;;;;3.80;2.42;;;18.40;99.90;;;;;;5054980;28;20030;-86
2023/08/05 07:25:48;;;;;;;3.83;2.65;;;18.40;99.90;;;;;;5057060;28;20026;-88
2023/08/05 07:28:14;;;;;;;4.15;2.53;;;18.40;99.90;;;;;;5055479;28;20029;-86
2023/08/05 07:30:40;;;;;;;3.97;2.17;;;18.10;99.90;;;;;;5040488;28;20033;-86
2023/08/05 07:33:09;;;;;;;3.00;1.77;;;18.00;99.90;;;;;;5020663;28;20025;-86
2023/08/05 07:35:37;;;;;;;2.72;1.42;;;18.30;99.90;;;;;;5053873;28;20492;-87
2023/08/05 07:38:09;;;;;;;3.40;2.85;;;18.50;99.90;;;;;;5047440;28;20112;-88
2023/08/05 07:40:39;;;;;;;3.92;2.88;;;18.60;99.90;;;;;;5051897;28;20043;-88
2023/08/05 07:43:06;;;;;;;3.97;3.13;;;19.20;99.90;;;;;;5032677;28;20420;-87
2023/08/05 07:45:35;;;;;;;4.47;2.53;;;19.10;99.90;;;;;;5025145;28;20053;-88
2023/08/05 07:48:01;;;;;;;5.28;2.15;;;19.10;99.90;;;;;;5056614;28;20039;-86
2023/08/05 07:50:26;;;;;;;3.42;2.13;;;19.00;99.90;;;;;;5037848;28;20033;-87
2023/08/05 07:52:53;;;;;;;3.90;2.25;;;18.70;99.90;;;;;;5049229;28;20072;-87
2023/08/05 07:55:19;;;;;;;3.50;1.90;;;18.90;99.90;;;;;;5040023;28;20026;-83
2023/08/05 07:57:46;;;;;;;3.55;2.25;;;18.80;99.90;;;;;;5045957;28;20029;-88
2023/08/05 08:00:13;;;;;;;3.08;1.83;;;18.60;99.90;;;;;;5063546;28;20405;-86
2023/08/05 08:02:45;;;;;;;3.00;1.23;;;18.60;99.90;;;;;;5056776;28;20037;-87
2023/08/05 08:05:13;;;;;;;3.08;1.35;;;18.80;99.90;;;;;;5062309;28;20108;-87
2023/08/05 08:07:46;;;;;;;3.53;1.90;;;18.80;99.90;;;;;;5057977;28;20086;-87
2023/08/05 08:10:13;;;;;;;3.20;1.92;;;18.80;99.90;;;;;;5057650;28;20022;-84
2023/08/05 08:12:39;;;;;;;2.15;1.02;;;18.80;99.90;;;;;;5047625;28;20045;-87
2023/08/05 08:15:05;;;;;;;3.40;1.70;;;18.80;99.90;;;;;;5039937;28;20509;-86
2023/08/05 08:17:30;;;;;;;3.95;1.38;;;18.60;99.90;;;;;;5036313;28;20031;-87
2023/08/05 08:19:56;;;;;;;3.08;1.08;;;18.70;99.90;;;;;;5041788;28;20022;-87
2023/08/05 08:22:22;;;;;;;1.58;0.73;;;18.80;99.90;;;;;;5039546;28;20428;-87
2023/08/05 08:24:48;;;;;;;2.53;0.77;;;18.90;99.90;;;;;;5046583;28;20076;-85
2023/08/05 08:27:13;;;;;;;1.70;0.55;;;19.00;99.90;;;;;;5045136;28;20045;-88
2023/08/05 08:29:39;;;;;;;1.67;0.65;;;19.20;99.90;;;;;;5033438;28;20487;-87
2023/08/05 08:32:05;;;;;;;2.17;0.60;;;19.20;99.90;;;;;;5058842;28;20037;-87
2023/08/05 08:34:31;;;;;;;1.60;0.50;;;19.00;99.90;;;;;;5044954;28;20028;-83
2023/08/05 08:36:56;;;;;;;1.40;0.50;;;19.10;99.90;;;;;;5037350;28;20482;-88
2023/08/05 08:39:22;;;;;;;1.17;0.55;;;19.50;99.90;;;;;;5057312;28;20021;-88
2023/08/05 08:41:49;;;;;;;1.13;0.50;;;19.60;99.90;;;;;;5047423;28;20130;-88
2023/08/05 08:44:16;;;;;;;0.95;0.40;;;19.90;99.90;;;;;;5064060;28;20025;-85
2023/08/05 08:46:44;;;;;;;2.83;0.60;;;20.40;99.90;;;;;;5052552;28;20033;-85
2023/08/05 08:49:13;;;;;;;1.20;0.43;;;20.40;99.90;;;;;;5038047;28;20107;-86
2023/08/05 08:51:40;;;;;;;1.85;0.60;;;20.40;99.90;;;;;;5035000;28;20049;-88
2023/08/05 08:54:07;;;;;;;1.48;0.43;;;20.30;99.90;;;;;;5056552;28;20033;-89
2023/08/05 08:56:33;;;;;;;1.20;0.50;;;20.20;99.90;;;;;;5032179;28;20025;-88
2023/08/05 08:58:58;;;;;;;1.20;0.43;;;20.20;99.90;;;;;;5046164;28;20080;-89
2023/08/05 09:01:26;;;;;;;1.27;0.60;;;20.00;99.90;;;;;;5053512;28;20079;-87
2023/08/05 09:03:53;;;;;;;1.00;0.43;;;19.70;99.90;;;;;;5056696;28;20081;-88
2023/08/05 09:06:22;;;;;;;1.00;0.50;;;19.80;99.90;;;;;;5062273;28;20029;-85
2023/08/05 09:08:50;;;;;;;1.90;0.45;;;19.70;99.90;;;;;;5050133;28;20528;-89
2023/08/05 09:11:16;;;;;;;1.77;0.50;;;19.40;99.90;;;;;;5025740;28;20052;-89
2023/08/05 09:13:45;;;;;;;1.13;0.50;;;19.30;99.90;;;;;;5025418;28;20489;-90
2023/08/05 09:16:14;;;;;;;1.73;0.50;;;19.50;99.90;;;;;;5051472;28;20108;-85
2023/08/05 09:18:53;;;;;;;0.83;0.40;;;19.80;99.90;;;;;;5052164;28;20025;-88
2023/08/05 09:21:28;;;;;;;0.88;0.32;;;19.60;99.90;;;;;;5036464;28;20025;-88
2023/08/05 09:23:55;;;;;;;0.77;0.30;;;19.60;99.90;;;;;;5038011;28;20029;-81
2023/08/05 09:26:31;;;;;;;1.52;0.30;;;19.60;99.90;;;;;;5051974;28;20029;-89
2023/08/05 09:28:58;;;;;;;0.63;0.30;;;19.60;99.90;;;;;;5033991;28;20415;-84
2023/08/05 09:31:25;;;;;;;0.90;0.40;;;19.60;99.90;;;;;;5039908;28;20036;-86
2023/08/05 09:33:51;;;;;;;1.10;0.40;;;19.90;99.90;;;;;;5034670;28;20036;-89
2023/08/05 09:36:20;;;;;;;1.38;0.35;;;20.40;99.90;;;;;;5036628;28;20047;-86
2023/08/05 09:38:46;;;;;;;0.88;0.40;;;20.70;99.90;;;;;;5053834;28;20041;-89
2023/08/05 09:41:12;;;;;;;1.25;0.40;;;20.70;99.90;;;;;;5052381;28;20033;-83
2023/08/05 09:43:43;;;;;;;1.08;0.50;;;20.30;99.90;;;;;;5050971;28;20029;-82
2023/08/05 09:46:12;;;;;;;1.05;0.40;;;20.40;99.90;;;;;;5052023;28;20029;-85
2023/08/05 09:48:43;;;;;;;0.60;0.30;;;20.40;99.90;;;;;;5034901;28;20124;-83
2023/08/05 09:51:14;;;;;;;1.17;0.40;;;20.50;99.90;;;;;;5051668;28;20037;-82
2023/08/05 09:53:41;;;;;;;1.00;0.40;;;20.60;99.90;;;;;;5054183;28;20044;-90
2023/08/05 09:56:07;;;;;;;0.75;0.40;;;21.00;99.90;;;;;;5052247;28;20029;-88
2023/08/05 09:58:39;;;;;;;0.90;0.40;;;21.20;99.90;;;;;;5044700;28;20394;-90
2023/08/05 10:01:07;;;;;;;0.93;0.45;;;21.10;99.90;;;;;;5052987;28;20036;-89
2023/08/05 10:03:37;;;;;;;1.98;0.40;;;20.80;99.90;;;;;;5034501;28;20037;-87
2023/08/05 10:06:06;;;;;;;1.95;0.50;;;20.90;99.90;;;;;;5035389;28;20033;-88
2023/08/05 10:08:35;;;;;;;1.10;0.43;;;20.90;99.90;;;;;;5034837;28;20032;-88
2023/08/05 10:11:02;;;;;;;0.65;0.32;;;20.70;99.90;;;;;;5044958;28;20067;-89
2023/08/05 10:13:28;;;;;;;1.15;0.40;;;20.90;99.90;;;;;;5048341;28;20025;-90
2023/08/05 10:15:56;;;;;;;0.80;0.40;;;21.40;99.90;;;;;;5051608;28;20033;-85
2023/08/05 10:18:24;;;;;;;0.93;0.30;;;21.80;99.90;;;;;;5065451;28;20035;-90
2023/08/05 10:20:52;;;;;;;1.10;0.40;;;21.80;99.90;;;;;;5053842;28;20345;-89
2023/08/05 10:23:18;;;;;;;1.05;0.30;;;21.60;99.90;;;;;;5025725;28;20036;-89
2023/08/05 10:25:49;;;;;;;0.57;0.30;;;21.90;99.90;;;;;;5059322;28;20032;-89
2023/08/05 10:28:42;;;;;;;0.88;0.30;;;22.20;99.90;;;;;;5063919;28;20168;-88
2023/08/05 10:31:37;;;;;;;1.77;0.40;;;22.10;99.90;;;;;;5045260;28;20045;-86
2023/08/05 10:34:17;;;;;;;1.30;0.30;;;21.30;99.90;;;;;;5032659;28;20550;-89
2023/08/05 10:36:49;;;;;;;1.10;0.40;;;21.00;99.90;;;;;;5063218;28;20116;-89
2023/08/05 10:39:40;;;;;;;1.00;0.30;;;21.00;99.90;;;;;;5055049;28;20105;-86
2023/08/05 10:42:28;;;;;;;1.02;0.30;;;21.20;99.90;;;;;;5056218;28;20036;-88
2023/08/05 10:44:54;;;;;;;1.58;0.32;;;21.20;99.90;;;;;;5063761;28;20032;-91
2023/08/05 10:47:23;;;;;;;0.80;0.40;;;22.00;99.90;;;;;;5056946;28;20033;-89
2023/08/05 10:49:59;;;;;;;0.60;0.22;;;22.40;99.90;;;;;;5061680;28;20484;-89
2023/08/05 10:52:25;;;;;;;1.45;0.40;;;22.40;99.90;;;;;;5030420;28;20390;-89
2023/08/05 10:54:52;;;;;;;0.60;0.30;;;22.10;99.90;;;;;;5046020;28;20047;-86
2023/08/05 10:57:33;;;;;;;1.55;0.30;;;22.30;99.90;;;;;;5035424;28;20029;-88
2023/08/05 11:00:00;;;;;;;0.85;0.30;;;22.30;99.90;;;;;;5058608;28;20039;-89
2023/08/05 11:02:26;;;;;;;0.65;0.30;;;22.40;99.90;;;;;;5054318;28;20079;-89
2023/08/05 11:05:05;;;;;;;0.90;0.30;;;22.60;99.90;;;;;;5064434;28;20122;-83
2023/08/05 11:07:32;;;;;;;0.75;0.40;;;23.00;99.90;;;;;;5059664;28;20051;-88
2023/08/05 11:09:57;;;;;;;1.25;0.20;;;23.00;99.90;;;;;;5049136;28;20032;-88
2023/08/05 11:12:26;;;;;;;1.35;0.45;;;23.10;99.90;;;;;;5047764;28;20029;-88
2023/08/05 11:14:52;;;;;;;1.03;0.40;;;23.00;99.90;;;;;;5052959;28;20017;-89
2023/08/05 11:17:18;;;;;;;0.93;0.30;;;22.40;99.90;;;;;;5038655;28;20287;-86
2023/08/05 11:19:51;;;;;;;0.68;0.20;;;21.90;99.90;;;;;;5044407;28;20033;-88
2023/08/05 11:22:28;;;;;;;0.70;0.30;;;22.40;99.90;;;;;;5043595;28;20037;-90
2023/08/05 11:24:59;;;;;;;1.40;0.30;;;22.70;99.90;;;;;;5059990;28;20036;-88
2023/08/05 11:27:47;;;;;;;0.63;0.30;;;22.70;99.90;;;;;;5038235;28;20033;-88
2023/08/05 11:30:18;;;;;;;0.57;0.30;;;22.30;99.90;;;;;;5043434;28;20070;-89
2023/08/05 11:32:57;;;;;;;1.33;0.22;;;22.30;99.90;;;;;;5042089;28;20102;-89
2023/08/05 11:35:24;;;;;;;1.83;0.30;;;21.90;99.90;;;;;;5056811;28;20120;-90
2023/08/05 11:37:53;;;;;;;0.50;0.30;;;22.00;99.90;;;;;;5052840;28;20118;-90
2023/08/05 11:40:19;;;;;;;0.53;0.30;;;22.30;99.90;;;;;;5045847;28;20405;-88
2023/08/05 11:42:45;;;;;;;0.43;0.20;;;22.30;99.90;;;;;;5049180;28;20116;-89
2023/08/05 11:45:12;;;;;;;0.73;0.30;;;22.50;99.90;;;;;;5029999;28;20542;-88
2023/08/05 11:47:39;;;;;;;0.50;0.28;;;22.50;99.90;;;;;;5043387;28;20029;-85
2023/08/05 11:50:06;;;;;;;0.70;0.40;;;22.40;99.90;;;;;;5050287;28;20116;-84
2023/08/05 11:52:32;;;;;;;0.93;0.30;;;22.40;99.90;;;;;;5057407;28;20187;-88
2023/08/05 11:54:59;;;;;;;0.75;0.40;;;22.30;99.90;;;;;;5058241;28;20032;-88
2023/08/05 11:57:26;;;;;;;1.17;0.30;;;22.20;99.90;;;;;;5040710;28;20059;-89
2023/08/05 11:59:55;;;;;;;0.75;0.30;;;21.90;99.90;;;;;;5044590;28;20039;-89
2023/08/05 12:02:22;;;;;;;0.63;0.30;;;21.70;99.90;;;;;;5026397;28;20017;-89
2023/08/05 12:04:55;;;;;;;1.25;0.30;;;21.50;99.90;;;;;;5052868;28;20072;-88
2023/08/05 12:07:21;;;;;;;0.73;0.30;;;21.20;99.90;;;;;;5043804;28;20108;-89
2023/08/05 12:10:10;;;;;;;0.93;0.30;;;21.20;99.90;;;;;;5058634;28;20029;-87
2023/08/05 12:12:37;;;;;;;0.57;0.20;;;21.10;99.90;;;;;;5016357;28;20455;-87
2023/08/05 12:15:24;;;;;;;0.95;0.30;;;20.90;99.90;;;;;;5037727;28;20060;-90
2023/08/05 12:17:51;;;;;;;0.60;0.30;;;20.60;99.90;;;;;;5061801;28;20389;-92
2023/08/05 12:20:37;;;;;;;3.83;0.30;;;19.90;99.90;;;;;;5061161;28;20047;-91
2023/08/05 12:23:03;;;;;;;1.27;0.30;;;17.80;99.90;;;;;;5060287;28;20043;-81
2023/08/05 12:25:31;;;;;;;1.67;0.35;;;16.90;99.90;;;;;;5036164;28;20029;-81
2023/08/05 12:27:58;;;;;;;1.52;0.40;;;16.30;99.90;;;;;;5053863;28;20021;-82
2023/08/05 12:30:24;;;;;;;1.23;0.40;;;16.20;99.90;;;;;;5050600;28;20059;-80
2023/08/05 12:32:50;;;;;;;1.30;0.40;;;16.40;99.90;;;;;;5039694;28;20033;-80
2023/08/05 12:35:16;;;;;;;0.80;0.30;;;16.70;99.90;;;;;;5034752;28;20052;-81
2023/08/05 12:37:42;;;;;;;0.85;0.30;;;17.00;99.90;;;;;;5035424;28;20470;-80
2023/08/05 12:40:13;;;;;;;0.90;0.20;;;17.20;99.90;;;;;;5036354;28;20029;-85
2023/08/05 12:42:39;;;;;;;1.70;0.40;;;17.40;99.90;;;;;;5039218;28;20465;-81
2023/08/05 12:45:05;;;;;;;1.42;0.47;;;17.40;99.90;;;;;;5037872;28;20109;-87
2023/08/05 12:47:35;;;;;;;0.88;0.40;;;17.50;99.90;;;;;;5037292;28;20257;-80
2023/08/05 12:50:02;;;;;;;1.10;0.40;;;17.70;99.90;;;;;;5036828;28;20031;-80